Time;durP1;ratioP1;P1;durP2;ratioP2;P2;SDS_P1;SDS_P2;PMS_P1;PMS_P2;Temp;Humidity;BMP_temperature;BMP_pressure;BME280_temperature;BME280_humidity;BME280_pressure;Samples;Min_cycle;Max_cycle;Signal;HPM_P1;HPM_P2
2023/06/11 00:01:52;;;;;;;;;;;13.50;74.90;;;;;;5011717;28;19980;-77
2023/06/11 00:04:24;;;;;;;;;;;13.50;74.80;;;;;;5012832;28;20588;-77
2023/06/11 00:06:59;;;;;;;;;;;13.50;75.10;;;;;;5017128;28;19936;-77
2023/06/11 00:09:26;;;;;;;;;;;13.40;75.20;;;;;;5011653;28;19932;-77
2023/06/11 00:11:53;;;;;;;;;;;13.40;75.80;;;;;;5012088;28;20279;-77
2023/06/11 00:14:22;;;;;;;;;;;13.30;76.00;;;;;;5006341;28;19952;-77
2023/06/11 00:16:51;;;;;;;;;;;13.30;75.80;;;;;;5009606;28;19952;-77
2023/06/11 00:19:20;;;;;;;;;;;13.30;76.30;;;;;;5010421;28;19929;-76
2023/06/11 00:21:48;;;;;;;;;;;13.30;76.70;;;;;;5023882;28;19929;-77
2023/06/11 00:24:15;;;;;;;;;;;13.30;76.90;;;;;;5014445;28;19937;-77
2023/06/11 00:26:42;;;;;;;;;;;13.20;76.90;;;;;;5012896;28;19937;-77
2023/06/11 00:29:09;;;;;;;;;;;13.20;77.00;;;;;;5009861;28;19929;-77
2023/06/11 00:31:36;;;;;;;;;;;13.20;77.50;;;;;;5000969;28;19934;-77
2023/06/11 00:34:03;;;;;;;;;;;13.20;77.80;;;;;;5010706;28;20379;-77
2023/06/11 00:36:30;;;;;;;;;;;13.10;77.50;;;;;;5011015;28;19979;-77
2023/06/11 00:38:58;;;;;;;;;;;13.10;77.80;;;;;;5015058;28;19933;-77
2023/06/11 00:41:25;;;;;;;;;;;13.10;78.20;;;;;;5019534;28;19980;-77
2023/06/11 00:43:54;;;;;;;;;;;13.10;78.20;;;;;;5009344;28;19957;-77
2023/06/11 00:46:21;;;;;;;;;;;13.10;78.50;;;;;;5003035;28;19929;-77
2023/06/11 00:48:49;;;;;;;;;;;13.10;78.70;;;;;;5012088;28;20558;-77
2023/06/11 00:51:23;;;;;;;;;;;13.00;78.70;;;;;;5012966;28;19929;-77
2023/06/11 00:53:51;;;;;;;;;;;13.00;79.10;;;;;;5015588;28;19929;-77
2023/06/11 00:56:19;;;;;;;;;;;13.00;78.90;;;;;;5008042;28;19930;-77
2023/06/11 00:58:47;;;;;;;;;;;13.00;78.80;;;;;;5011391;28;19929;-77
2023/06/11 01:01:19;;;;;;;;;;;13.00;79.10;;;;;;5011816;28;19968;-77
2023/06/11 01:03:47;;;;;;;;;;;13.00;78.90;;;;;;5011143;28;19965;-77
2023/06/11 01:06:17;;;;;;;;;;;13.00;79.60;;;;;;5005875;28;19936;-77
2023/06/11 01:08:47;;;;;;;;;;;12.90;78.90;;;;;;4999251;28;19976;-77
2023/06/11 01:11:22;;;;;;;;;;;13.00;79.50;;;;;;5013620;28;20656;-77
2023/06/11 01:13:49;;;;;;;;;;;13.00;79.30;;;;;;5014964;28;19930;-77
2023/06/11 01:16:23;;;;;;;;;;;12.90;79.10;;;;;;5010246;28;20358;-77
2023/06/11 01:18:58;;;;;;;;;;;13.00;80.10;;;;;;5011487;28;19930;-77
2023/06/11 01:21:29;;;;;;;;;;;12.90;79.60;;;;;;5001898;28;19929;-77
2023/06/11 01:24:06;;;;;;;;;;;12.90;80.10;;;;;;5017750;28;20044;-77
2023/06/11 01:26:51;;;;;;;;;;;12.90;79.60;;;;;;5027611;28;19940;-77
2023/06/11 01:29:19;;;;;;;;;;;12.90;80.10;;;;;;5008476;28;20012;-76
2023/06/11 01:31:46;;;;;;;;;;;12.80;80.50;;;;;;5021788;28;19934;-77
2023/06/11 01:34:13;;;;;;;;;;;12.80;80.50;;;;;;5007046;28;19972;-77
2023/06/11 01:36:40;;;;;;;;;;;12.80;80.30;;;;;;5008616;28;19929;-77
2023/06/11 01:39:06;;;;;;;;;;;12.80;81.00;;;;;;5030004;28;20017;-76
2023/06/11 01:41:33;;;;;;;;;;;12.70;80.50;;;;;;5023310;28;19930;-77
2023/06/11 01:44:00;;;;;;;;;;;12.70;80.80;;;;;;5008427;28;20639;-76
2023/06/11 01:46:27;;;;;;;;;;;12.70;80.70;;;;;;5007904;28;20025;-77
2023/06/11 01:48:54;;;;;;;;;;;12.70;80.90;;;;;;5008860;28;19930;-77
2023/06/11 01:51:21;;;;;;;;;;;12.60;81.20;;;;;;5012443;28;19936;-77
2023/06/11 01:53:48;;;;;;;;;;;12.60;81.90;;;;;;5015796;28;19933;-79
2023/06/11 01:56:15;;;;;;;;;;;12.60;81.20;;;;;;5008086;28;19944;-77
2023/06/11 01:58:45;;;;;;;;;;;12.60;81.60;;;;;;4998366;28;19980;-76
2023/06/11 02:01:12;;;;;;;;;;;12.50;81.20;;;;;;5012816;28;19961;-77
2023/06/11 02:03:41;;;;;;;;;;;12.50;81.20;;;;;;5014510;28;19929;-77
2023/06/11 02:06:08;;;;;;;;;;;12.40;81.20;;;;;;5009194;28;20685;-77
2023/06/11 02:08:35;;;;;;;;;;;12.40;81.30;;;;;;5009392;28;19961;-76
2023/06/11 02:11:03;;;;;;;;;;;12.40;81.60;;;;;;5017867;28;19926;-77
2023/06/11 02:13:30;;;;;;;;;;;12.30;82.20;;;;;;5006333;28;19932;-76
2023/06/11 02:16:00;;;;;;;;;;;12.30;81.80;;;;;;4998361;28;19937;-77
2023/06/11 02:18:27;;;;;;;;;;;12.30;81.80;;;;;;5000863;28;19985;-78
2023/06/11 02:20:54;;;;;;;;;;;12.30;82.50;;;;;;5019469;28;20035;-77
2023/06/11 02:23:21;;;;;;;;;;;12.30;81.90;;;;;;4993417;28;19968;-77
2023/06/11 02:25:47;;;;;;;;;;;12.30;81.90;;;;;;5016277;28;19932;-77
2023/06/11 02:28:15;;;;;;;;;;;12.20;82.20;;;;;;5010419;28;19984;-77
2023/06/11 02:30:41;;;;;;;;;;;12.20;81.90;;;;;;4994596;28;19929;-77
2023/06/11 02:33:08;;;;;;;;;;;12.20;82.20;;;;;;5018538;28;19983;-76
2023/06/11 02:35:35;;;;;;;;;;;12.10;82.20;;;;;;5032364;28;19956;-76
2023/06/11 02:38:02;;;;;;;;;;;12.10;82.20;;;;;;5016418;28;19953;-75
2023/06/11 02:40:29;;;;;;;;;;;12.10;82.70;;;;;;4998939;28;19929;-76
2023/06/11 02:42:55;;;;;;;;;;;12.10;82.20;;;;;;5005490;28;19929;-77
2023/06/11 02:45:22;;;;;;;;;;;12.10;82.40;;;;;;5014875;28;19929;-77
2023/06/11 02:47:49;;;;;;;;;;;12.10;82.30;;;;;;5020107;28;20493;-77
2023/06/11 02:50:16;;;;;;;;;;;12.10;82.50;;;;;;5009179;28;19934;-77
2023/06/11 02:52:42;;;;;;;;;;;12.10;83.00;;;;;;4999064;28;19929;-77
2023/06/11 02:55:09;;;;;;;;;;;12.10;82.80;;;;;;5013117;28;19943;-77
2023/06/11 02:57:36;;;;;;;;;;;12.00;82.70;;;;;;5005930;28;20346;-77
2023/06/11 03:00:04;;;;;;;;;;;12.00;83.00;;;;;;5018672;28;20012;-77
2023/06/11 03:02:31;;;;;;;;;;;12.00;83.80;;;;;;5005675;28;20382;-77
2023/06/11 03:04:57;;;;;;;;;;;12.00;83.40;;;;;;5014263;28;19929;-77
2023/06/11 03:07:24;;;;;;;;;;;11.90;83.30;;;;;;5019288;28;20378;-77
2023/06/11 03:09:51;;;;;;;;;;;11.90;83.60;;;;;;4999105;28;19957;-77
2023/06/11 03:12:17;;;;;;;;;;;11.90;84.00;;;;;;5025733;28;20419;-76
2023/06/11 03:14:44;;;;;;;;;;;11.90;83.40;;;;;;5016732;28;19929;-77
2023/06/11 03:17:11;;;;;;;;;;;11.90;83.90;;;;;;5010816;28;19930;-77
2023/06/11 03:19:38;;;;;;;;;;;11.90;83.90;;;;;;4999550;28;19930;-77
2023/06/11 03:22:04;;;;;;;;;;;11.80;83.80;;;;;;5040712;28;19960;-77
2023/06/11 03:24:31;;;;;;;;;;;11.80;83.60;;;;;;5008105;28;20028;-77
2023/06/11 03:26:58;;;;;;;;;;;11.80;83.90;;;;;;5034576;28;20081;-77
2023/06/11 03:29:25;;;;;;;;;;;11.80;83.70;;;;;;5011825;28;19936;-76
2023/06/11 03:31:51;;;;;;;;;;;11.80;83.60;;;;;;5016269;28;19976;-78
2023/06/11 03:34:18;;;;;;;;;;;11.80;84.00;;;;;;5010445;28;19936;-77
2023/06/11 03:36:45;;;;;;;;;;;11.80;84.30;;;;;;5031737;28;20503;-77
2023/06/11 03:39:12;;;;;;;;;;;11.80;84.00;;;;;;5004827;28;20035;-78
2023/06/11 03:41:38;;;;;;;;;;;11.90;84.00;;;;;;5012869;28;19992;-76
2023/06/11 03:44:05;;;;;;;;;;;11.90;83.90;;;;;;5040005;28;19930;-77
2023/06/11 03:46:32;;;;;;;;;;;11.90;83.70;;;;;;4998017;28;20635;-77
2023/06/11 03:49:00;;;;;;;;;;;11.90;83.50;;;;;;5021008;28;19929;-77
2023/06/11 03:51:26;;;;;;;;;;;11.90;83.90;;;;;;5010108;28;20020;-77
2023/06/11 03:53:53;;;;;;;;;;;11.90;83.80;;;;;;5012309;28;19929;-77
2023/06/11 03:56:20;;;;;;;;;;;11.90;83.90;;;;;;5003863;28;20335;-77
2023/06/11 03:58:46;;;;;;;;;;;12.00;84.00;;;;;;5010523;28;19929;-77
2023/06/11 04:01:13;;;;;;;;;;;12.00;84.10;;;;;;5007497;28;19976;-77
2023/06/11 04:03:40;;;;;;;;;;;12.00;84.00;;;;;;5009380;28;19930;-77
2023/06/11 04:06:07;;;;;;;;;;;12.00;84.40;;;;;;5008186;28;19936;-77
2023/06/11 04:08:34;;;;;;;;;;;12.10;84.30;;;;;;4999906;28;20023;-77
2023/06/11 04:11:01;;;;;;;;;;;12.10;83.80;;;;;;5009240;28;20368;-77
2023/06/11 04:13:27;;;;;;;;;;;12.10;84.30;;;;;;5016410;28;19937;-77
2023/06/11 04:15:54;;;;;;;;;;;12.10;84.30;;;;;;4989844;28;19976;-77
2023/06/11 04:18:21;;;;;;;;;;;12.10;84.40;;;;;;5012173;28;19936;-77
2023/06/11 04:20:48;;;;;;;;;;;12.10;83.90;;;;;;5018465;28;19933;-78
2023/06/11 04:23:15;;;;;;;;;;;12.20;84.40;;;;;;5035596;28;19929;-77
2023/06/11 04:25:43;;;;;;;;;;;12.20;84.20;;;;;;5012920;28;19929;-77
2023/06/11 04:28:10;;;;;;;;;;;12.20;83.70;;;;;;5013329;28;19975;-78
2023/06/11 04:30:36;;;;;;;;;;;12.20;84.40;;;;;;5009504;28;20400;-77
2023/06/11 04:33:04;;;;;;;;;;;12.30;84.00;;;;;;5010070;28;19958;-78
2023/06/11 04:35:34;;;;;;;;;;;12.30;85.10;;;;;;5013164;28;20028;-78
2023/06/11 04:38:02;;;;;;;;;;;12.40;84.80;;;;;;5001444;28;20690;-77
2023/06/11 04:40:30;;;;;;;;;;;12.40;84.90;;;;;;5007740;28;20023;-77
2023/06/11 04:42:57;;;;;;;;;;;12.50;84.60;;;;;;5005668;28;20402;-77
2023/06/11 04:45:26;;;;;;;;;;;12.50;84.50;;;;;;5003723;28;19940;-77
2023/06/11 04:47:53;;;;;;;;;;;12.60;84.70;;;;;;5018166;28;19993;-78
2023/06/11 04:50:21;;;;;;;;;;;12.60;84.80;;;;;;5011043;28;19929;-78
2023/06/11 04:52:51;;;;;;;;;;;12.60;84.60;;;;;;5011606;28;20639;-77
2023/06/11 04:55:21;;;;;;;;;;;12.70;84.20;;;;;;5000901;28;19925;-77
2023/06/11 04:57:49;;;;;;;;;;;12.70;83.90;;;;;;5010834;28;19929;-78
2023/06/11 05:00:16;;;;;;;;;;;12.80;84.20;;;;;;5015826;28;19976;-77
2023/06/11 05:02:44;;;;;;;;;;;12.80;83.80;;;;;;5012576;28;19929;-77
2023/06/11 05:05:11;;;;;;;;;;;12.90;83.80;;;;;;5024034;28;19929;-78
2023/06/11 05:07:38;;;;;;;;;;;13.00;83.10;;;;;;5017790;28;19930;-78
2023/06/11 05:10:05;;;;;;;;;;;13.10;82.60;;;;;;5011531;28;19936;-78
2023/06/11 05:12:32;;;;;;;;;;;13.20;81.70;;;;;;5003011;28;20042;-78
2023/06/11 05:14:59;;;;;;;;;;;13.20;81.50;;;;;;5021419;28;19944;-77
2023/06/11 05:17:26;;;;;;;;;;;13.30;81.30;;;;;;5014509;28;19925;-78
2023/06/11 05:19:52;;;;;;;;;;;13.40;80.60;;;;;;5022494;28;19975;-77
2023/06/11 05:22:20;;;;;;;;;;;13.50;80.40;;;;;;5011781;28;19976;-77
2023/06/11 05:24:47;;;;;;;;;;;13.50;80.30;;;;;;5011149;28;19972;-78
2023/06/11 05:27:14;;;;;;;;;;;13.60;80.00;;;;;;5017589;28;19963;-77
2023/06/11 05:29:41;;;;;;;;;;;13.70;79.40;;;;;;4994358;28;19933;-78
2023/06/11 05:32:14;;;;;;;;;;;13.80;79.00;;;;;;5015396;28;19929;-77
2023/06/11 05:34:43;;;;;;;;;;;13.80;78.90;;;;;;4989485;28;20270;-77
2023/06/11 05:37:10;;;;;;;;;;;13.90;78.70;;;;;;5010253;28;19929;-77
2023/06/11 05:39:36;;;;;;;;;;;14.00;78.40;;;;;;5006693;28;19929;-77
2023/06/11 05:42:03;;;;;;;;;;;14.10;78.30;;;;;;5013118;28;19972;-77
2023/06/11 05:44:30;;;;;;;;;;;14.10;77.10;;;;;;4996888;28;19976;-77
2023/06/11 05:46:57;;;;;;;;;;;14.20;76.80;;;;;;4996120;28;19929;-77
2023/06/11 05:49:24;;;;;;;;;;;14.30;77.60;;;;;;5015617;28;19930;-78
2023/06/11 05:51:51;;;;;;;;;;;14.40;77.20;;;;;;5009557;28;20327;-78
2023/06/11 05:54:17;;;;;;;;;;;14.50;81.60;;;;;;4983391;28;20480;-78
2023/06/11 05:56:45;;;;;;;;;;;14.50;79.90;;;;;;4991471;28;19987;-78
2023/06/11 05:59:11;;;;;;;;;;;14.60;76.80;;;;;;5012242;28;19933;-78
2023/06/11 06:01:38;;;;;;;;;;;14.70;78.10;;;;;;5012871;28;20589;-78
2023/06/11 06:04:05;;;;;;;;;;;14.70;79.70;;;;;;5020899;28;19929;-78
2023/06/11 06:06:33;;;;;;;;;;;14.80;76.50;;;;;;5018314;28;20615;-77
2023/06/11 06:09:00;;;;;;;;;;;15.00;76.10;;;;;;5008971;28;20003;-78
2023/06/11 06:11:26;;;;;;;;;;;15.10;76.70;;;;;;5015792;28;20409;-78
2023/06/11 06:13:53;;;;;;;;;;;15.30;75.90;;;;;;5010282;28;19925;-77
2023/06/11 06:16:20;;;;;;;;;;;15.60;76.00;;;;;;4995603;28;20035;-78
2023/06/11 06:18:47;;;;;;;;;;;15.90;72.60;;;;;;5006639;28;20684;-78
2023/06/11 06:21:14;;;;;;;;;;;16.30;73.20;;;;;;5014342;28;19933;-77
2023/06/11 06:23:41;;;;;;;;;;;16.50;72.80;;;;;;4996957;28;19937;-79
2023/06/11 06:26:08;;;;;;;;;;;16.80;71.80;;;;;;5009323;28;19930;-79
2023/06/11 06:28:35;;;;;;;;;;;17.10;67.80;;;;;;4997335;28;20373;-78
2023/06/11 06:31:02;;;;;;;;;;;17.40;67.80;;;;;;4990833;28;19976;-79
2023/06/11 06:33:34;;;;;;;;;;;17.70;69.20;;;;;;5023564;28;19937;-78
2023/06/11 06:36:02;;;;;;;;;;;18.10;68.80;;;;;;5009834;28;20289;-78
2023/06/11 06:38:31;;;;;;;;;;;18.30;64.40;;;;;;5001418;28;19948;-79
2023/06/11 06:40:58;;;;;;;;;;;18.60;66.30;;;;;;5009776;28;19944;-80
2023/06/11 06:43:24;;;;;;;;;;;18.80;64.90;;;;;;5010642;28;20020;-83
2023/06/11 06:45:51;;;;;;;;;;;19.10;64.10;;;;;;5019020;28;20000;-80
2023/06/11 06:48:18;;;;;;;;;;;19.30;64.10;;;;;;5017767;28;20011;-79
2023/06/11 06:50:45;;;;;;;;;;;19.50;63.00;;;;;;5023630;28;19936;-80
2023/06/11 06:53:11;;;;;;;;;;;19.80;62.30;;;;;;5010191;28;19972;-78
2023/06/11 06:55:38;;;;;;;;;;;20.00;60.80;;;;;;5014877;28;19929;-78
2023/06/11 06:58:05;;;;;;;;;;;20.10;60.10;;;;;;5016247;28;19930;-78
2023/06/11 07:00:32;;;;;;;;;;;20.50;59.50;;;;;;5020750;28;20429;-79
2023/06/11 07:02:59;;;;;;;;;;;20.80;60.10;;;;;;4992784;28;19930;-79
2023/06/11 07:05:27;;;;;;;;;;;21.10;57.10;;;;;;5005917;28;19933;-77
2023/06/11 07:07:54;;;;;;;;;;;21.40;58.40;;;;;;5011075;28;19933;-79
2023/06/11 07:10:21;;;;;;;;;;;21.60;56.20;;;;;;5013213;28;20024;-81
2023/06/11 07:12:48;;;;;;;;;;;21.60;54.20;;;;;;5012104;28;20024;-82
2023/06/11 07:15:15;;;;;;;;;;;21.70;55.00;;;;;;5011757;28;19988;-79
2023/06/11 07:17:41;;;;;;;;;;;22.10;55.60;;;;;;5014737;28;19969;-80
2023/06/11 07:20:09;;;;;;;;;;;22.20;53.80;;;;;;5002379;28;20416;-80
2023/06/11 07:22:37;;;;;;;;;;;22.20;53.30;;;;;;4997476;28;19972;-80
2023/06/11 07:25:06;;;;;;;;;;;22.40;54.20;;;;;;5010519;28;20047;-79
2023/06/11 07:27:33;;;;;;;;;;;22.50;52.90;;;;;;5007263;28;19932;-80
2023/06/11 07:30:00;;;;;;;;;;;22.70;53.90;;;;;;5007548;28;20685;-79
2023/06/11 07:32:27;;;;;;;;;;;22.90;53.00;;;;;;5006067;28;20387;-81
2023/06/11 07:34:53;;;;;;;;;;;23.00;52.40;;;;;;5005552;28;19933;-79
2023/06/11 07:37:20;;;;;;;;;;;23.00;52.20;;;;;;5010586;28;20304;-80
2023/06/11 07:39:47;;;;;;;;;;;23.20;52.00;;;;;;5015836;28;19929;-79
2023/06/11 07:42:14;;;;;;;;;;;23.60;51.70;;;;;;5014446;28;19964;-79
2023/06/11 07:44:41;;;;;;;;;;;23.80;50.30;;;;;;5016822;28;20382;-79
2023/06/11 07:47:08;;;;;;;;;;;24.00;49.70;;;;;;4999867;28;19948;-79
2023/06/11 07:49:35;;;;;;;;;;;24.20;49.20;;;;;;5018352;28;19925;-79
2023/06/11 07:52:02;;;;;;;;;;;24.30;48.40;;;;;;5024456;28;20011;-78
2023/06/11 07:54:29;;;;;;;;;;;24.50;49.00;;;;;;5011285;28;20492;-79
2023/06/11 07:56:55;;;;;;;;;;;24.60;48.60;;;;;;5025254;28;19997;-79
2023/06/11 07:59:29;;;;;;;;;;;24.80;48.20;;;;;;5012917;28;19948;-79
2023/06/11 08:01:56;;;;;;;;;;;24.90;49.20;;;;;;5002932;28;19929;-79
2023/06/11 08:04:22;;;;;;;;;;;25.10;46.90;;;;;;4994941;28;20560;-78
2023/06/11 08:06:49;;;;;;;;;;;25.40;46.90;;;;;;5011991;28;20024;-78
2023/06/11 08:09:16;;;;;;;;;;;25.40;46.20;;;;;;5009218;28;19969;-78
2023/06/11 08:11:43;;;;;;;;;;;25.80;46.50;;;;;;4995037;28;19969;-78
2023/06/11 08:14:09;;;;;;;;;;;26.00;45.30;;;;;;5008371;28;20710;-78
2023/06/11 08:16:36;;;;;;;;;;;26.00;44.40;;;;;;4990761;28;20295;-78
2023/06/11 08:19:03;;;;;;;;;;;26.30;44.70;;;;;;5010971;28;19995;-78
2023/06/11 08:21:30;;;;;;;;;;;26.30;45.20;;;;;;5015997;28;19972;-78
2023/06/11 08:23:57;;;;;;;;;;;26.40;44.70;;;;;;5024719;28;19951;-78
2023/06/11 08:26:25;;;;;;;;;;;26.40;43.50;;;;;;5016059;28;20024;-78
2023/06/11 08:28:55;;;;;;;;;;;26.80;43.00;;;;;;5017719;28;19936;-78
2023/06/11 08:31:22;;;;;;;;;;;27.10;41.50;;;;;;5005893;28;19929;-78
2023/06/11 08:33:49;;;;;;;;;;;27.30;42.90;;;;;;4996865;28;19972;-78
2023/06/11 08:36:16;;;;;;;;;;;27.50;42.90;;;;;;4995258;28;19929;-78
2023/06/11 08:38:43;;;;;;;;;;;27.50;41.70;;;;;;5008280;28;20008;-77
2023/06/11 08:41:10;;;;;;;;;;;27.80;41.80;;;;;;5007218;28;19956;-78
2023/06/11 08:43:38;;;;;;;;;;;28.20;41.10;;;;;;4996101;28;20019;-78
2023/06/11 08:46:07;;;;;;;;;;;28.20;38.70;;;;;;5010845;28;19929;-77
2023/06/11 08:48:36;;;;;;;;;;;28.20;39.20;;;;;;5013906;28;19929;-78
2023/06/11 08:51:03;;;;;;;;;;;28.20;39.20;;;;;;5006454;28;20032;-78
2023/06/11 08:53:30;;;;;;;;;;;28.10;38.80;;;;;;4993208;28;20035;-78
2023/06/11 08:55:57;;;;;;;;;;;28.30;37.90;;;;;;4989879;28;20397;-77
2023/06/11 08:58:33;;;;;;;;;;;28.30;37.70;;;;;;5007673;28;19937;-77
2023/06/11 09:01:09;;;;;;;;;;;28.30;37.80;;;;;;5016867;28;19941;-78
2023/06/11 09:03:36;;;;;;;;;;;28.40;37.80;;;;;;5017925;28;20456;-78
2023/06/11 09:06:03;;;;;;;;;;;28.50;38.60;;;;;;4974568;28;20041;-78
2023/06/11 09:08:30;;;;;;;;;;;28.90;38.70;;;;;;4976595;28;19973;-77
2023/06/11 09:10:56;;;;;;;;;;;29.00;37.40;;;;;;4969711;28;19975;-78
2023/06/11 09:13:24;;;;;;;;;;;29.20;37.50;;;;;;4971752;28;19936;-78
2023/06/11 09:15:55;;;;;;;;;;;29.10;36.30;;;;;;4983232;28;19930;-77
2023/06/11 09:18:23;;;;;;;;;;;29.40;34.90;;;;;;4990788;28;19964;-78
2023/06/11 09:20:50;;;;;;;;;;;29.40;35.90;;;;;;4983164;28;19933;-78
2023/06/11 09:23:27;;;;;;;;;;;29.40;35.80;;;;;;4979958;28;20264;-78
2023/06/11 09:26:01;;;;;;;;;;;29.80;34.30;;;;;;5018740;28;19930;-79
2023/06/11 09:28:32;;;;;;;;;;;30.00;33.70;;;;;;5004189;28;19929;-77
2023/06/11 09:30:59;;;;;;;;;;;30.20;35.00;;;;;;4995331;28;19976;-77
2023/06/11 09:33:27;;;;;;;;;;;30.10;35.00;;;;;;4983361;28;20024;-77
2023/06/11 09:35:54;;;;;;;;;;;30.40;36.10;;;;;;4974462;28;19937;-77
2023/06/11 09:38:21;;;;;;;;;;;30.70;34.40;;;;;;4972732;28;19944;-77
2023/06/11 09:40:48;;;;;;;;;;;30.70;33.10;;;;;;4989989;28;19934;-77
2023/06/11 09:43:18;;;;;;;;;;;30.70;33.90;;;;;;4981935;28;21204;-78
2023/06/11 09:45:45;;;;;;;;;;;31.20;33.40;;;;;;4989715;28;20032;-82
2023/06/11 09:48:12;;;;;;;;;;;31.30;33.60;;;;;;4987324;28;20641;-78
2023/06/11 09:50:41;;;;;;;;;;;31.10;32.40;;;;;;4970120;28;19976;-78
2023/06/11 09:53:10;;;;;;;;;;;31.10;32.60;;;;;;4967369;28;20012;-78
2023/06/11 09:55:37;;;;;;;;;;;31.00;33.70;;;;;;4986519;28;19929;-78
2023/06/11 09:58:03;;;;;;;;;;;31.00;33.10;;;;;;4979527;28;20025;-78
2023/06/11 10:00:30;;;;;;;;;;;31.10;32.60;;;;;;4986433;28;19930;-77
2023/06/11 10:02:57;;;;;;;;;;;31.30;33.50;;;;;;4985993;28;20013;-77
2023/06/11 10:05:24;;;;;;;;;;;31.40;33.30;;;;;;4997232;28;19934;-77
2023/06/11 10:07:57;;;;;;;;;;;31.60;33.80;;;;;;5002602;28;19987;-77
2023/06/11 10:10:24;;;;;;;;;;;31.70;32.70;;;;;;5022453;28;19930;-77
2023/06/11 10:12:52;;;;;;;;;;;31.30;33.00;;;;;;4988439;28;19934;-77
2023/06/11 10:15:23;;;;;;;;;;;31.60;33.20;;;;;;5024759;28;20012;-77
2023/06/11 10:17:51;;;;;;;;;;;31.50;33.00;;;;;;5008067;28;20039;-77
2023/06/11 10:20:27;;;;;;;;;;;31.30;34.40;;;;;;5003893;28;20012;-79
2023/06/11 10:23:11;;;;;;;;;;;31.30;34.00;;;;;;5026156;28;20416;-78
2023/06/11 10:25:41;;;;;;;;;;;31.30;33.10;;;;;;5028275;28;20366;-78
2023/06/11 10:28:09;;;;;;;;;;;31.50;32.80;;;;;;5007995;28;20028;-79
2023/06/11 10:30:36;;;;;;;;;;;31.80;32.90;;;;;;4993290;28;20043;-79
2023/06/11 10:33:03;;;;;;;;;;;31.50;34.00;;;;;;5004873;28;19933;-79
2023/06/11 10:35:36;;;;;;;;;;;31.40;33.30;;;;;;5023049;28;19933;-74
2023/06/11 10:38:05;;;;;;;;;;;31.60;31.40;;;;;;4998048;28;19937;-72
2023/06/11 10:40:32;;;;;;;;;;;31.40;32.30;;;;;;5006549;28;19933;-73
2023/06/11 10:42:59;;;;;;;;;;;31.40;33.10;;;;;;4993502;28;20055;-74
2023/06/11 10:45:33;;;;;;;;;;;31.30;32.80;;;;;;5004009;28;20036;-73
2023/06/11 10:47:59;;;;;;;;;;;31.20;33.40;;;;;;4990013;28;20443;-79
2023/06/11 10:50:31;;;;;;;;;;;31.40;33.30;;;;;;5021922;28;20036;-78
2023/06/11 10:53:01;;;;;;;;;;;31.50;31.40;;;;;;4997045;28;19926;-74
2023/06/11 10:55:29;;;;;;;;;;;31.60;31.80;;;;;;4990852;28;20027;-74
2023/06/11 10:57:56;;;;;;;;;;;31.70;31.60;;;;;;4994268;28;20091;-72
2023/06/11 11:00:24;;;;;;;;;;;31.80;32.00;;;;;;5002967;28;20043;-74
2023/06/11 11:02:51;;;;;;;;;;;31.80;31.10;;;;;;5003992;28;19937;-73
2023/06/11 11:05:18;;;;;;;;;;;31.60;29.70;;;;;;5022538;28;20549;-73
2023/06/11 11:07:45;;;;;;;;;;;31.70;32.00;;;;;;5001442;28;21787;-73
2023/06/11 11:10:15;;;;;;;;;;;31.80;31.60;;;;;;4996026;28;19932;-73
2023/06/11 11:12:42;;;;;;;;;;;31.60;31.00;;;;;;5003953;28;20317;-73
2023/06/11 11:15:10;;;;;;;;;;;31.30;32.60;;;;;;5003986;28;20052;-73
2023/06/11 11:17:41;;;;;;;;;;;31.50;31.50;;;;;;4994751;28;19929;-74
2023/06/11 11:20:14;;;;;;;;;;;31.60;31.20;;;;;;5004283;28;19936;-73
2023/06/11 11:22:41;;;;;;;;;;;31.20;31.80;;;;;;5007168;28;19968;-73
2023/06/11 11:25:07;;;;;;;;;;;31.40;31.80;;;;;;5007073;28;19933;-78
2023/06/11 11:27:37;;;;;;;;;;;31.60;32.60;;;;;;5007575;28;20041;-78
2023/06/11 11:30:05;;;;;;;;;;;31.40;31.40;;;;;;4999358;28;19934;-79
2023/06/11 11:32:33;;;;;;;;;;;31.50;30.90;;;;;;5008671;28;20017;-80
2023/06/11 11:35:01;;;;;;;;;;;31.50;32.30;;;;;;5007468;28;19960;-78
2023/06/11 11:37:30;;;;;;;;;;;31.70;31.40;;;;;;5011159;28;20420;-78
2023/06/11 11:40:06;;;;;;;;;;;31.60;31.30;;;;;;4995904;28;20464;-80
2023/06/11 11:42:46;;;;;;;;;;;31.40;31.00;;;;;;4998126;28;20282;-80
2023/06/11 11:45:14;;;;;;;;;;;31.40;31.90;;;;;;5005717;28;19960;-80
2023/06/11 11:47:42;;;;;;;;;;;31.50;32.30;;;;;;4992634;28;19930;-80
2023/06/11 11:50:17;;;;;;;;;;;31.40;32.00;;;;;;4992821;28;19961;-80
2023/06/11 11:52:45;;;;;;;;;;;31.50;31.20;;;;;;5001846;28;19952;-80
2023/06/11 11:55:12;;;;;;;;;;;31.70;31.50;;;;;;5003401;28;19939;-80
2023/06/11 11:57:40;;;;;;;;;;;31.80;32.00;;;;;;5028165;28;20076;-81
2023/06/11 12:00:07;;;;;;;;;;;32.00;31.20;;;;;;5017429;28;19929;-79
2023/06/11 12:02:40;;;;;;;;;;;31.90;31.00;;;;;;5013160;28;20319;-79
2023/06/11 12:05:12;;;;;;;;;;;32.00;31.20;;;;;;5021208;28;19990;-79
2023/06/11 12:07:39;;;;;;;;;;;31.90;30.30;;;;;;4991204;28;20009;-79
2023/06/11 12:10:06;;;;;;;;;;;31.70;30.50;;;;;;5020146;28;20577;-79
2023/06/11 12:12:32;;;;;;;;;;;31.70;30.60;;;;;;4993710;28;20380;-80
2023/06/11 12:14:59;;;;;;;;;;;31.60;30.90;;;;;;4997698;28;19965;-80
2023/06/11 12:17:26;;;;;;;;;;;31.60;29.70;;;;;;4991864;28;20031;-80
2023/06/11 12:19:53;;;;;;;;;;;31.30;30.80;;;;;;5011229;28;19932;-80
2023/06/11 12:22:19;;;;;;;;;;;31.50;31.50;;;;;;5014972;28;19944;-80
2023/06/11 12:24:46;;;;;;;;;;;31.50;32.80;;;;;;5009077;28;19982;-80
2023/06/11 12:27:13;;;;;;;;;;;31.30;33.80;;;;;;5021873;28;20020;-80
2023/06/11 12:29:40;;;;;;;;;;;31.50;32.20;;;;;;4997435;28;20023;-81
2023/06/11 12:32:16;;;;;;;;;;;31.40;31.80;;;;;;4997190;28;19980;-82
2023/06/11 12:34:43;;;;;;;;;;;31.40;30.90;;;;;;4998534;28;20009;-81
2023/06/11 12:37:10;;;;;;;;;;;31.30;32.20;;;;;;5011963;28;19940;-82
2023/06/11 12:39:37;;;;;;;;;;;31.40;32.90;;;;;;5021284;28;19991;-83
2023/06/11 12:42:03;;;;;;;;;;;31.60;33.90;;;;;;5009456;28;20555;-81
2023/06/11 12:44:31;;;;;;;;;;;31.50;33.50;;;;;;5035964;28;19980;-81
2023/06/11 12:46:57;;;;;;;;;;;31.60;34.00;;;;;;5021188;28;19971;-81
2023/06/11 12:49:27;;;;;;;;;;;31.70;34.00;;;;;;5010444;28;20024;-81
2023/06/11 12:51:54;;;;;;;;;;;31.60;34.10;;;;;;5008603;28;19929;-81
2023/06/11 12:54:23;;;;;;;;;;;31.70;34.30;;;;;;5003481;28;19930;-81
2023/06/11 12:56:50;;;;;;;;;;;31.70;33.90;;;;;;5012400;28;20642;-82
2023/06/11 12:59:17;;;;;;;;;;;31.60;33.10;;;;;;5020448;28;19983;-81
2023/06/11 13:01:44;;;;;;;;;;;31.50;34.40;;;;;;4997698;28;19980;-81
2023/06/11 13:04:11;;;;;;;;;;;31.50;33.90;;;;;;5012981;28;19930;-81
2023/06/11 13:06:38;;;;;;;;;;;31.60;33.90;;;;;;4999262;28;19936;-82
2023/06/11 13:09:05;;;;;;;;;;;31.60;34.50;;;;;;4990572;28;19925;-81
2023/06/11 13:11:31;;;;;;;;;;;31.70;33.00;;;;;;4993466;28;19983;-81
2023/06/11 13:13:58;;;;;;;;;;;31.60;33.10;;;;;;5011255;28;19929;-81
2023/06/11 13:16:25;;;;;;;;;;;31.40;34.10;;;;;;5020375;28;19935;-81
2023/06/11 13:18:52;;;;;;;;;;;31.40;34.80;;;;;;4999992;28;19925;-81
2023/06/11 13:21:19;;;;;;;;;;;31.50;33.80;;;;;;5007417;28;19972;-81
2023/06/11 13:23:46;;;;;;;;;;;31.50;33.80;;;;;;4991986;28;19955;-81
2023/06/11 13:26:12;;;;;;;;;;;31.40;33.60;;;;;;5008082;28;19933;-82
2023/06/11 13:28:41;;;;;;;;;;;31.30;34.30;;;;;;5002461;28;19925;-82
2023/06/11 13:31:08;;;;;;;;;;;31.30;33.10;;;;;;5002791;28;19926;-83
2023/06/11 13:33:35;;;;;;;;;;;31.30;33.70;;;;;;5003876;28;19977;-82
2023/06/11 13:36:02;;;;;;;;;;;31.40;34.30;;;;;;5011453;28;20429;-82
2023/06/11 13:38:29;;;;;;;;;;;31.10;33.10;;;;;;4991190;28;19963;-82
2023/06/11 13:40:56;;;;;;;;;;;31.00;33.00;;;;;;5016198;28;19975;-82
2023/06/11 13:43:22;;;;;;;;;;;30.80;33.50;;;;;;5005245;28;20633;-82
2023/06/11 13:45:49;;;;;;;;;;;30.90;34.60;;;;;;5016153;28;19972;-81
2023/06/11 13:48:18;;;;;;;;;;;31.10;34.60;;;;;;5013202;28;19941;-82
2023/06/11 13:50:47;;;;;;;;;;;31.10;33.70;;;;;;5014016;28;19980;-79
2023/06/11 13:53:14;;;;;;;;;;;30.90;33.90;;;;;;4990527;28;19933;-81
2023/06/11 13:55:41;;;;;;;;;;;30.80;33.80;;;;;;4981596;28;19964;-75
2023/06/11 13:58:08;;;;;;;;;;;31.00;34.10;;;;;;4999306;28;21044;-76
2023/06/11 14:00:35;;;;;;;;;;;30.80;33.40;;;;;;5004677;28;20370;-75
2023/06/11 14:03:02;;;;;;;;;;;30.80;34.20;;;;;;5118261;22;19933;-79
2023/06/11 14:05:30;;;;;;;;;;;31.00;34.30;;;;;;5013521;28;20043;-81
2023/06/11 14:07:57;;;;;;;;;;;30.90;33.70;;;;;;5031862;28;19937;-80
2023/06/11 14:10:25;;;;;;;;;;;30.80;36.20;;;;;;5027892;28;20551;-81
2023/06/11 14:12:51;;;;;;;;;;;30.90;37.20;;;;;;5019491;28;20031;-80
2023/06/11 14:18:09;;;;;;;;;;;30.90;35.50;;;;;;5026319;28;19948;-78
2023/06/11 14:20:36;;;;;;;;;;;30.70;35.00;;;;;;5007009;28;19929;-79
2023/06/11 14:23:05;;;;;;;;;;;30.50;36.10;;;;;;5026070;28;20012;-78